Adak, AK

6:42 PM HAST on November 26, 2014 (GMT -1000)
Adak | Change Station
CLOSE
Current Station
Airport
Location: Adak,
Elevation: 13 ft
Nearby Weather Stations

Elev 13 ft 51.88 °N, 176.65 °W | Updated 6 minutes ago

Overcast
Overcast
41 °F
Feels Like 29 °F
N
36
Wind Variable Wind from SW
Gusts 58 mph

Today
High -- | Low -- °F
--% Chance of Precip.
Yesterday
High -- | Low -- °F
Precip. -- in
9:24 AM 5:42 PM
Waxing Crescent, 25% visible
Pressure 29.25 in
Visibility 9.0 miles
Clouds Scattered Clouds 1800 ft
Mostly Cloudy 2400 ft
Overcast 3100 ft
Windchill 29 °F
Dew Point 34 °F
Humidity 76%
Rainfall 0.60 in
Snow Depth Not available.
UV 0 out of 12
Pollen Not available.
Air Quality Not available.
Flu Activity Not available.
METAR PADK 270436Z AUTO 23031G50KT 9SM SCT018 BKN024 OVC031 05/01 A2925 RMK AO1 P0001

More Conditions Fewer Conditions

Pressure 29.25 in
Visibility 9.0 miles
Clouds Scattered Clouds 1800 ft
Mostly Cloudy 2400 ft
Overcast 3100 ft
Windchill 29 °F
Dew Point 34 °F
Humidity 76%
Rainfall 0.60 in
Snow Depth Not available.
UV 0 out of 12
Pollen Not available.
Air Quality Not available.
Flu Activity Not available.
METAR PADK 270436Z AUTO 23031G50KT 9SM SCT018 BKN024 OVC031 05/01 A2925 RMK AO1 P0001

More Conditions Fewer Conditions

10-Day Weather Forecast

Almanac

Astronomy

Nov. 26, 2014 Rise Set
Actual Time
Civil Twilight
Nautical Twilight
Astronomical Twilight
Moon
Length of Visible Light
Length of Day
Tomorrow will be .
, % of the Moon is Illuminated

Today's Extremes

State Highs State Lows

Community

WunderPhotos

Upload Photos

1,773,959 photos uploaded!

WunderBlogs® & News

Nearby

Air Quality

  Air Quality AQ Index Pollutant
Not available.

Snow Depth

Station Depth Elevation

Earthquake Activity

City Distance Mag. Time & Date
Minimum magnitude displayed is 2.5.

Coastal Water Temperatures

Place Temperature

Nearby Weather Stations